createdAt,value
2019-01-13T00:00:33.867Z,21.00
2019-01-13T00:03:05.169Z,14.13
2019-01-13T00:05:36.398Z,17.90
2019-01-13T00:08:07.678Z,16.27
2019-01-13T00:10:38.810Z,12.70
2019-01-13T00:13:09.842Z,17.80
2019-01-13T00:15:40.464Z,12.33
2019-01-13T00:18:12.195Z,15.50
2019-01-13T00:20:43.679Z,17.33
2019-01-13T00:23:14.541Z,15.17
2019-01-13T00:29:28.394Z,20.63
2019-01-13T00:31:59.328Z,15.50
2019-01-13T00:34:32.011Z,20.37
2019-01-13T00:37:02.777Z,18.97
2019-01-13T00:39:32.927Z,19.07
2019-01-13T00:42:04.025Z,15.63
2019-01-13T00:44:34.363Z,18.97
2019-01-13T00:47:04.579Z,19.10
2019-01-13T00:49:35.036Z,20.87
2019-01-13T00:52:05.914Z,21.50
2019-01-13T00:54:36.051Z,23.03
2019-01-13T00:57:08.160Z,13.37
2019-01-13T00:59:40.300Z,21.07
2019-01-13T01:02:12.702Z,18.87
2019-01-13T01:04:44.069Z,24.43
2019-01-13T01:07:16.412Z,25.17
2019-01-13T01:09:48.248Z,20.83
2019-01-13T01:12:19.876Z,18.40
2019-01-13T01:14:51.750Z,19.90
2019-01-13T01:17:25.859Z,24.10
2019-01-13T01:20:01.076Z,21.43
2019-01-13T01:22:31.857Z,20.80
2019-01-13T01:25:02.650Z,25.53
2019-01-13T01:27:33.534Z,25.97
2019-01-13T01:30:06.415Z,27.77
2019-01-13T01:32:37.873Z,25.37
2019-01-13T01:35:09.443Z,20.93
2019-01-13T01:37:41.128Z,23.10
2019-01-13T01:40:14.819Z,24.43
2019-01-13T01:42:46.491Z,25.43
2019-01-13T01:45:18.518Z,22.03
2019-01-13T01:47:49.132Z,18.90
2019-01-13T01:50:19.595Z,25.17
2019-01-13T01:52:49.814Z,19.67
2019-01-13T01:55:20.188Z,29.37
2019-01-13T01:57:50.728Z,22.57
2019-01-13T02:00:22.676Z,26.23
2019-01-13T02:02:53.423Z,26.43
2019-01-13T02:05:25.030Z,23.67
2019-01-13T02:07:57.660Z,28.90
2019-01-13T02:10:28.587Z,32.27
2019-01-13T02:13:00.500Z,24.07
2019-01-13T02:15:31.563Z,27.93
2019-01-13T02:18:02.423Z,27.30
2019-01-13T02:20:33.997Z,21.60
2019-01-13T02:23:06.060Z,30.67
2019-01-13T02:25:37.161Z,21.43
2019-01-13T02:28:07.922Z,21.70
2019-01-13T02:30:39.858Z,23.63
2019-01-13T02:33:11.847Z,30.93
2019-01-13T02:35:42.385Z,20.10
2019-01-13T02:38:13.812Z,20.93
2019-01-13T02:40:46.688Z,15.93
2019-01-13T02:43:17.818Z,24.50
2019-01-13T02:45:48.980Z,20.17
2019-01-13T02:48:20.551Z,17.17
2019-01-13T02:50:52.077Z,22.10
2019-01-13T02:53:24.203Z,19.13
2019-01-13T02:55:55.188Z,20.13
2019-01-13T02:58:26.239Z,18.27
2019-01-13T03:00:57.687Z,19.97
2019-01-13T03:03:28.731Z,24.63
2019-01-13T03:06:00.019Z,19.90
2019-01-13T03:08:30.535Z,21.77
2019-01-13T03:11:01.700Z,14.27
2019-01-13T03:13:32.181Z,12.60
2019-01-13T03:16:02.718Z,24.13
2019-01-13T03:18:33.129Z,22.90
2019-01-13T03:21:03.907Z,15.77
2019-01-13T03:23:35.139Z,22.03
2019-01-13T03:26:05.895Z,21.13
2019-01-13T03:28:36.465Z,29.80
2019-01-13T03:31:12.092Z,24.13
2019-01-13T03:33:41.269Z,21.90
2019-01-13T03:36:12.319Z,22.97
2019-01-13T03:38:43.417Z,25.83
2019-01-13T03:41:13.753Z,20.43
2019-01-13T03:43:44.562Z,23.13
2019-01-13T03:46:14.814Z,20.33
2019-01-13T03:48:45.363Z,26.10
2019-01-13T03:51:16.157Z,31.20
2019-01-13T03:53:46.554Z,25.93
2019-01-13T03:56:17.348Z,31.20
2019-01-13T03:58:49.358Z,20.80
2019-01-13T04:01:19.815Z,26.70
2019-01-13T04:03:50.451Z,23.70
2019-01-13T04:06:20.856Z,25.57
2019-01-13T04:08:51.059Z,25.67
2019-01-13T04:11:21.575Z,19.73
2019-01-13T04:13:52.200Z,22.53
2019-01-13T04:16:23.179Z,22.23
2019-01-13T04:18:53.345Z,25.63
2019-01-13T04:21:23.353Z,20.60
2019-01-13T04:23:53.877Z,24.10
2019-01-13T04:26:23.999Z,15.67
2019-01-13T04:28:54.347Z,21.57
2019-01-13T04:31:26.971Z,15.03
2019-01-13T04:33:56.694Z,18.27
2019-01-13T04:36:27.338Z,23.40
2019-01-13T04:38:57.569Z,27.30
2019-01-13T04:41:27.866Z,15.00
2019-01-13T04:43:58.051Z,21.03
2019-01-13T04:46:28.256Z,27.77
2019-01-13T04:48:58.831Z,24.33
2019-01-13T04:51:29.719Z,20.43
2019-01-13T04:54:00.552Z,19.10
2019-01-13T04:56:31.608Z,26.40
2019-01-13T04:59:02.072Z,16.57
2019-01-13T05:01:34.718Z,17.73
2019-01-13T05:04:06.167Z,20.87
2019-01-13T05:06:36.743Z,21.50
2019-01-13T05:09:08.488Z,18.60
2019-01-13T05:11:39.511Z,18.83
2019-01-13T05:14:10.947Z,17.30
2019-01-13T05:16:41.622Z,24.83
2019-01-13T05:19:11.647Z,36.27
2019-01-13T05:21:42.434Z,23.60
2019-01-13T05:24:13.465Z,9.97
2019-01-13T05:26:43.995Z,21.07
2019-01-13T05:29:14.658Z,15.87
2019-01-13T05:31:44.765Z,16.00
2019-01-13T05:34:15.029Z,15.40
2019-01-13T05:36:45.402Z,13.20
2019-01-13T05:39:15.673Z,12.83
2019-01-13T05:41:45.841Z,18.80
2019-01-13T05:44:16.010Z,18.77
2019-01-13T05:46:46.740Z,15.47
2019-01-13T05:49:17.510Z,16.23
2019-01-13T05:51:48.132Z,13.70
2019-01-13T05:54:18.818Z,13.77
2019-01-13T05:56:49.933Z,16.93
2019-01-13T05:59:20.814Z,16.53
2019-01-13T06:01:51.121Z,12.73
2019-01-13T06:04:21.476Z,10.77
2019-01-13T06:06:51.924Z,13.40
2019-01-13T06:09:22.192Z,15.77
2019-01-13T06:11:53.188Z,15.60
2019-01-13T06:14:23.798Z,18.87
2019-01-13T06:16:54.397Z,12.10
2019-01-13T06:19:25.119Z,14.87
2019-01-13T06:21:56.498Z,13.70
2019-01-13T06:24:27.667Z,17.23
2019-01-13T06:26:58.890Z,13.07
2019-01-13T06:29:35.054Z,15.07
2019-01-13T06:32:06.641Z,16.03
2019-01-13T06:34:37.569Z,14.33
2019-01-13T06:37:08.643Z,12.30
2019-01-13T06:39:40.334Z,15.57
2019-01-13T06:42:11.500Z,14.83
2019-01-13T06:44:41.778Z,14.40
2019-01-13T06:47:12.046Z,12.33
2019-01-13T06:49:42.325Z,17.17
2019-01-13T06:52:12.704Z,16.87
2019-01-13T06:54:42.756Z,20.17
2019-01-13T06:57:13.251Z,15.90
2019-01-13T06:59:43.595Z,16.77
2019-01-13T07:02:14.253Z,13.30
2019-01-13T07:04:45.247Z,15.43
2019-01-13T07:07:15.561Z,9.83
2019-01-13T07:09:45.965Z,13.53
2019-01-13T07:12:16.277Z,12.53
2019-01-13T07:14:48.281Z,14.80
2019-01-13T07:17:19.862Z,16.43
2019-01-13T07:19:50.958Z,10.40
2019-01-13T07:22:21.315Z,14.93
2019-01-13T07:24:51.770Z,13.63
2019-01-13T07:27:22.431Z,15.87
2019-01-13T07:29:53.201Z,12.70
2019-01-13T07:32:24.034Z,12.90
2019-01-13T07:34:54.944Z,15.30
2019-01-13T07:37:26.003Z,11.70
2019-01-13T07:39:57.071Z,9.27
2019-01-13T07:42:27.904Z,12.30
2019-01-13T07:44:59.547Z,9.63
2019-01-13T07:47:30.962Z,12.80
2019-01-13T07:50:01.882Z,6.80
2019-01-13T07:52:32.480Z,8.23
2019-01-13T07:55:03.498Z,9.67
2019-01-13T07:57:34.775Z,9.33
2019-01-13T08:00:08.198Z,7.17
2019-01-13T08:02:38.445Z,6.63
2019-01-13T08:05:10.424Z,6.90
2019-01-13T08:07:41.186Z,6.53
2019-01-13T08:10:14.085Z,6.67
2019-01-13T08:12:44.875Z,6.03
2019-01-13T08:15:17.949Z,6.07
2019-01-13T08:17:48.520Z,5.70
2019-01-13T08:20:24.495Z,4.37
2019-01-13T08:22:55.402Z,6.20
2019-01-13T08:25:26.360Z,6.40
2019-01-13T08:27:57.006Z,6.10
2019-01-13T08:30:27.542Z,7.00
2019-01-13T08:32:57.829Z,6.80
2019-01-13T08:35:28.121Z,4.70
2019-01-13T08:37:58.378Z,4.20
2019-01-13T08:40:28.530Z,2.80
2019-01-13T08:42:58.710Z,4.00
2019-01-13T08:45:28.770Z,3.10
2019-01-13T08:47:58.977Z,3.43
2019-01-13T08:50:29.716Z,2.00
2019-01-13T08:52:59.838Z,3.60
2019-01-13T08:55:30.598Z,3.30
2019-01-13T08:58:00.865Z,2.37
2019-01-13T09:00:31.821Z,1.80
2019-01-13T09:03:02.199Z,3.03
2019-01-13T09:05:32.916Z,2.40
2019-01-13T09:08:03.084Z,3.03
2019-01-13T09:10:33.745Z,2.43
2019-01-13T09:13:04.548Z,3.27
2019-01-13T09:15:34.640Z,5.30
2019-01-13T09:18:05.045Z,2.73
2019-01-13T09:20:35.389Z,6.20
2019-01-13T09:23:05.892Z,5.67
2019-01-13T09:25:36.322Z,4.20
2019-01-13T09:28:06.238Z,5.57
2019-01-13T09:30:36.657Z,6.60
2019-01-13T09:33:06.805Z,5.63
2019-01-13T09:35:37.267Z,8.73
2019-01-13T09:38:07.701Z,9.37
2019-01-13T09:40:38.268Z,6.43
2019-01-13T09:43:08.820Z,3.40
2019-01-13T09:45:39.511Z,5.30
2019-01-13T09:48:09.918Z,2.57
2019-01-13T09:50:40.115Z,2.90
2019-01-13T09:53:10.423Z,4.10
2019-01-13T09:55:40.482Z,1.83
2019-01-13T09:58:10.636Z,2.20
2019-01-13T10:00:41.571Z,2.17
2019-01-13T10:03:12.426Z,1.30
2019-01-13T10:05:42.465Z,2.40
2019-01-13T10:08:12.688Z,2.07
2019-01-13T10:10:43.863Z,1.70
2019-01-13T10:13:14.481Z,3.40
2019-01-13T10:15:45.630Z,1.73
2019-01-13T10:18:16.255Z,3.37
2019-01-13T10:20:46.669Z,2.73
2019-01-13T10:23:17.114Z,2.00
2019-01-13T10:25:47.677Z,3.07
2019-01-13T10:28:17.951Z,3.40
2019-01-13T10:30:48.940Z,2.23
2019-01-13T10:33:19.538Z,2.93
2019-01-13T10:35:50.162Z,1.83
2019-01-13T10:38:20.372Z,3.73
2019-01-13T10:40:50.750Z,7.07
2019-01-13T10:43:21.268Z,5.37
2019-01-13T10:45:51.537Z,1.93
2019-01-13T10:48:21.827Z,6.47
2019-01-13T10:50:52.106Z,7.37
2019-01-13T10:53:22.178Z,3.13
2019-01-13T10:55:52.919Z,4.43
2019-01-13T10:58:23.529Z,5.87
2019-01-13T11:00:53.908Z,6.20
2019-01-13T11:03:24.123Z,5.20
2019-01-13T11:05:54.323Z,7.60
2019-01-13T11:08:24.687Z,5.30
2019-01-13T11:10:55.135Z,5.57
2019-01-13T11:13:25.458Z,4.97
2019-01-13T11:15:55.698Z,9.40
2019-01-13T11:18:26.243Z,8.73
2019-01-13T11:20:56.526Z,5.07
2019-01-13T11:23:27.658Z,4.43
2019-01-13T11:25:57.973Z,6.37
2019-01-13T11:28:28.379Z,6.17
2019-01-13T11:30:58.686Z,2.73
2019-01-13T11:33:29.289Z,2.63
2019-01-13T11:35:59.551Z,5.60
2019-01-13T11:38:29.824Z,6.23
2019-01-13T11:41:00.079Z,5.03
2019-01-13T11:43:30.030Z,3.47
2019-01-13T11:46:00.121Z,4.73
2019-01-13T11:48:30.467Z,8.77
2019-01-13T11:51:00.763Z,8.13
2019-01-13T11:53:30.960Z,9.00
2019-01-13T11:56:01.196Z,7.40
2019-01-13T11:58:31.848Z,6.97
2019-01-13T12:01:02.597Z,12.23
2019-01-13T12:03:33.116Z,10.80
2019-01-13T12:06:03.840Z,16.17
2019-01-13T12:08:34.439Z,14.03
2019-01-13T12:11:04.853Z,17.90
2019-01-13T12:13:35.090Z,13.73
2019-01-13T12:16:05.762Z,12.10
2019-01-13T12:18:40.479Z,19.83
2019-01-13T12:21:08.012Z,14.77
2019-01-13T12:23:38.137Z,16.87
2019-01-13T12:26:08.172Z,17.77
2019-01-13T12:28:38.701Z,24.03
2019-01-13T12:31:09.716Z,23.00
2019-01-13T12:33:40.078Z,21.33
2019-01-13T12:36:10.409Z,23.80
2019-01-13T12:38:40.903Z,26.90
2019-01-13T12:41:11.175Z,23.20
2019-01-13T12:43:41.428Z,28.47
2019-01-13T12:46:11.742Z,23.43
2019-01-13T12:48:42.122Z,21.60
2019-01-13T12:51:12.560Z,17.80
2019-01-13T12:53:42.721Z,19.00
2019-01-13T12:56:13.514Z,24.60
2019-01-13T12:58:44.138Z,19.80
2019-01-13T13:01:14.637Z,13.93
2019-01-13T13:03:44.941Z,19.53
2019-01-13T13:06:15.913Z,19.10
2019-01-13T13:08:46.759Z,16.83
2019-01-13T13:11:17.612Z,19.23
2019-01-13T13:13:48.185Z,18.50
2019-01-13T13:16:19.050Z,20.80
2019-01-13T13:18:49.659Z,20.37
2019-01-13T13:21:20.743Z,9.93
2019-01-13T13:23:51.112Z,22.10
2019-01-13T13:26:21.887Z,18.40
2019-01-13T13:28:52.336Z,26.10
2019-01-13T13:31:22.831Z,18.30
2019-01-13T13:33:52.987Z,22.20
2019-01-13T13:36:23.385Z,18.87
2019-01-13T13:38:54.022Z,21.23
2019-01-13T13:41:24.406Z,28.50
2019-01-13T13:43:54.544Z,21.67
2019-01-13T13:46:25.118Z,23.53
2019-01-13T13:48:55.779Z,28.43
2019-01-13T13:51:26.071Z,22.53
2019-01-13T13:53:56.411Z,30.87
2019-01-13T13:56:26.506Z,36.20
2019-01-13T13:58:56.664Z,22.77
2019-01-13T14:01:27.185Z,22.90
2019-01-13T14:03:57.834Z,28.67
2019-01-13T14:06:27.822Z,15.70
2019-01-13T14:08:58.219Z,26.87
2019-01-13T14:11:28.369Z,24.50
2019-01-13T14:13:58.669Z,22.43
2019-01-13T14:16:29.946Z,24.70
2019-01-13T14:19:00.084Z,23.00
2019-01-13T14:21:30.059Z,24.77
2019-01-13T14:24:00.188Z,20.97
2019-01-13T14:26:30.499Z,28.93
2019-01-13T14:29:01.667Z,23.50
2019-01-13T14:31:33.733Z,29.33
2019-01-13T14:34:04.752Z,19.23
2019-01-13T14:36:35.164Z,26.90
2019-01-13T14:39:08.007Z,29.63
2019-01-13T14:41:39.218Z,22.33
2019-01-13T14:44:11.814Z,12.73
2019-01-13T14:46:42.188Z,9.50
2019-01-13T14:49:12.851Z,12.47
2019-01-13T14:51:43.320Z,7.53
2019-01-13T14:54:13.815Z,7.43
2019-01-13T14:56:44.411Z,10.60
2019-01-13T14:59:14.770Z,10.50
2019-01-13T15:01:45.229Z,16.27
2019-01-13T15:04:15.818Z,22.93
2019-01-13T15:06:46.120Z,13.13
2019-01-13T15:09:16.285Z,23.57
2019-01-13T15:11:47.359Z,14.50
2019-01-13T15:14:18.840Z,20.80
2019-01-13T15:16:49.431Z,20.80
2019-01-13T15:19:20.018Z,17.80
2019-01-13T15:21:50.054Z,16.80
2019-01-13T15:24:20.259Z,16.00
2019-01-13T15:26:50.633Z,16.80
2019-01-13T15:29:21.251Z,17.30
2019-01-13T15:31:53.046Z,13.63
2019-01-13T15:34:23.816Z,12.93
2019-01-13T15:36:55.087Z,17.67
2019-01-13T15:39:25.955Z,17.67
2019-01-13T15:41:56.666Z,18.13
2019-01-13T15:44:26.816Z,14.47
2019-01-13T15:46:57.155Z,15.80
2019-01-13T15:49:27.662Z,16.17
2019-01-13T15:51:58.079Z,16.40
2019-01-13T15:54:28.486Z,13.17
2019-01-13T15:57:01.603Z,15.20
2019-01-13T15:59:34.987Z,20.90
2019-01-13T16:02:05.199Z,13.33
2019-01-13T16:04:35.493Z,14.03
2019-01-13T16:07:05.780Z,19.63
2019-01-13T16:09:36.056Z,21.60
2019-01-13T16:12:06.437Z,18.80
2019-01-13T16:14:37.457Z,20.40
2019-01-13T16:17:08.701Z,16.63
2019-01-13T16:19:40.298Z,27.17
2019-01-13T16:22:11.028Z,21.17
2019-01-13T16:24:41.173Z,19.50
2019-01-13T16:27:11.406Z,18.87
2019-01-13T16:29:41.661Z,26.50
2019-01-13T16:32:13.942Z,15.90
2019-01-13T16:34:44.192Z,14.13
2019-01-13T16:37:14.539Z,15.13
2019-01-13T16:39:44.815Z,20.97
2019-01-13T16:42:15.030Z,13.73
2019-01-13T16:44:45.270Z,19.17
2019-01-13T16:47:15.385Z,21.40
2019-01-13T16:49:45.424Z,23.17
2019-01-13T16:52:15.724Z,21.40
2019-01-13T16:54:46.011Z,15.13
2019-01-13T16:57:16.352Z,28.67
2019-01-13T16:59:46.579Z,20.27
2019-01-13T17:02:16.993Z,16.17
2019-01-13T17:04:47.336Z,25.80
2019-01-13T17:07:17.337Z,18.40
2019-01-13T17:09:47.605Z,20.73
2019-01-13T17:12:17.795Z,20.37
2019-01-13T17:14:47.898Z,18.63
2019-01-13T17:17:19.973Z,23.47
2019-01-13T17:19:50.681Z,24.33
2019-01-13T17:22:21.384Z,23.07
2019-01-13T17:24:52.001Z,18.60
2019-01-13T17:27:22.360Z,20.60
2019-01-13T17:29:52.804Z,20.73
2019-01-13T17:32:22.842Z,28.97
2019-01-13T17:34:52.965Z,20.33
2019-01-13T17:37:26.097Z,19.33
2019-01-13T17:39:56.266Z,23.80
2019-01-13T17:42:26.417Z,21.87
2019-01-13T17:44:56.512Z,23.60
2019-01-13T17:47:26.889Z,21.50
2019-01-13T17:49:57.091Z,26.77
2019-01-13T17:52:27.331Z,20.13
2019-01-13T17:54:57.468Z,25.83
2019-01-13T17:57:27.683Z,28.83
2019-01-13T17:59:57.851Z,24.30
2019-01-13T18:02:28.181Z,19.03
2019-01-13T18:04:58.800Z,28.20
2019-01-13T18:07:29.150Z,23.37
2019-01-13T18:09:59.348Z,26.27
2019-01-13T18:12:29.725Z,31.97
2019-01-13T18:14:59.819Z,20.40
2019-01-13T18:17:30.115Z,22.17
2019-01-13T18:20:00.621Z,28.93
2019-01-13T18:22:30.967Z,24.30
2019-01-13T18:25:01.234Z,14.90
2019-01-13T18:27:32.500Z,20.50
2019-01-13T18:30:04.120Z,19.23
2019-01-13T18:32:34.374Z,21.77
2019-01-13T18:35:08.084Z,23.27
2019-01-13T18:37:38.992Z,22.97
2019-01-13T18:40:21.299Z,16.53
2019-01-13T18:42:51.500Z,28.37
2019-01-13T18:45:22.162Z,24.40
2019-01-13T18:47:52.566Z,25.80
2019-01-13T18:50:26.838Z,29.87
2019-01-13T18:53:00.803Z,31.23
2019-01-13T18:55:31.065Z,20.43
2019-01-13T18:58:01.609Z,28.27
2019-01-13T19:00:32.422Z,25.13
2019-01-13T19:03:03.010Z,28.50
2019-01-13T19:05:34.475Z,19.23
2019-01-13T19:08:05.524Z,16.10
2019-01-13T19:10:50.348Z,10.10
2019-01-13T19:13:41.331Z,13.67
2019-01-13T19:16:14.405Z,15.73
2019-01-13T19:18:45.361Z,13.83
2019-01-13T19:21:16.093Z,19.20
2019-01-13T19:23:46.997Z,13.27
2019-01-13T19:26:17.540Z,13.80
2019-01-13T19:28:48.903Z,16.63
2019-01-13T19:31:20.062Z,18.93
2019-01-13T19:33:50.808Z,16.20
2019-01-13T19:36:21.433Z,21.67
2019-01-13T19:38:52.735Z,12.70
2019-01-13T19:41:23.245Z,18.80
2019-01-13T19:43:53.700Z,16.63
2019-01-13T19:46:24.077Z,15.93
2019-01-13T19:48:55.007Z,14.27
2019-01-13T19:51:26.795Z,17.77
2019-01-13T19:53:58.293Z,19.90
2019-01-13T19:56:30.879Z,25.30
2019-01-13T19:59:02.141Z,25.47
2019-01-13T20:01:33.824Z,17.87
2019-01-13T20:04:04.839Z,15.30
2019-01-13T20:06:36.630Z,21.37
2019-01-13T20:09:11.414Z,28.07
2019-01-13T20:11:42.020Z,37.77
2019-01-13T20:14:12.545Z,27.27
2019-01-13T20:16:43.321Z,27.70
2019-01-13T20:19:13.629Z,30.60
2019-01-13T20:21:43.894Z,29.17
2019-01-13T20:24:14.139Z,24.97
2019-01-13T20:26:44.368Z,28.43
2019-01-13T20:29:14.579Z,24.00
2019-01-13T20:31:44.874Z,26.53
2019-01-13T20:34:15.063Z,32.13
2019-01-13T20:36:45.033Z,29.13
2019-01-13T20:39:15.416Z,28.90
2019-01-13T20:41:45.746Z,26.50
2019-01-13T20:44:15.593Z,28.80
2019-01-13T20:46:45.680Z,41.17
2019-01-13T20:49:15.948Z,33.60
2019-01-13T20:51:46.088Z,26.17
2019-01-13T20:54:16.957Z,25.20
2019-01-13T20:56:48.471Z,27.37
2019-01-13T20:59:19.298Z,31.60
2019-01-13T21:01:51.226Z,26.27
2019-01-13T21:04:30.674Z,26.30
2019-01-13T21:07:04.112Z,41.67
2019-01-13T21:09:36.513Z,35.53
2019-01-13T21:12:09.147Z,37.67
2019-01-13T21:14:39.762Z,26.00
2019-01-13T21:17:10.064Z,30.03
2019-01-13T21:19:40.358Z,40.97
2019-01-13T21:22:10.673Z,29.60
2019-01-13T21:24:41.377Z,24.00
2019-01-13T21:27:12.818Z,27.63
2019-01-13T21:29:43.645Z,34.60
2019-01-13T21:32:14.008Z,37.73
2019-01-13T21:34:44.742Z,27.53
2019-01-13T21:37:15.874Z,27.43
2019-01-13T21:39:46.505Z,32.53
2019-01-13T21:42:16.857Z,31.87
2019-01-13T21:44:46.841Z,19.87
2019-01-13T21:47:17.057Z,28.73
2019-01-13T21:49:47.751Z,23.17
2019-01-13T21:52:18.169Z,34.93
2019-01-13T21:54:48.524Z,28.60
2019-01-13T21:57:19.600Z,17.83
2019-01-13T21:59:49.901Z,28.13
2019-01-13T22:02:20.135Z,30.67
2019-01-13T22:04:50.231Z,28.47
2019-01-13T22:07:20.574Z,24.73
2019-01-13T22:09:51.125Z,19.30
2019-01-13T22:12:21.774Z,24.37
2019-01-13T22:14:52.247Z,28.97
2019-01-13T22:17:22.964Z,26.80
2019-01-13T22:19:53.459Z,38.03
2019-01-13T22:22:23.851Z,31.13
2019-01-13T22:24:53.868Z,30.87
2019-01-13T22:27:24.150Z,34.23
2019-01-13T22:29:54.333Z,34.47
2019-01-13T22:32:24.703Z,27.17
2019-01-13T22:34:55.641Z,37.63
2019-01-13T22:37:26.035Z,26.07
2019-01-13T22:39:56.913Z,28.47
2019-01-13T22:42:27.159Z,30.23
2019-01-13T22:44:57.317Z,35.77
2019-01-13T22:47:27.519Z,28.67
2019-01-13T22:49:58.703Z,32.73
2019-01-13T22:52:30.216Z,36.90
2019-01-13T22:55:00.534Z,41.50
2019-01-13T22:57:30.749Z,37.95
2019-01-13T23:00:01.398Z,32.83
2019-01-13T23:02:31.804Z,27.03
2019-01-13T23:05:02.491Z,27.70
2019-01-13T23:07:33.204Z,22.07
2019-01-13T23:10:05.804Z,32.40
2019-01-13T23:12:36.747Z,35.43
2019-01-13T23:15:07.062Z,28.25
2019-01-13T23:17:36.976Z,30.87
2019-01-13T23:20:09.350Z,35.00
2019-01-13T23:22:39.446Z,25.80
2019-01-13T23:25:09.531Z,26.90
2019-01-13T23:27:39.562Z,35.77
2019-01-13T23:30:11.025Z,30.68
2019-01-13T23:32:41.145Z,26.33
2019-01-13T23:35:11.244Z,26.97
2019-01-13T23:37:41.296Z,34.80
2019-01-13T23:40:11.757Z,34.75
2019-01-13T23:42:42.052Z,18.57
2019-01-13T23:45:12.281Z,24.53
2019-01-13T23:47:42.455Z,32.20
2019-01-13T23:50:12.913Z,34.07
2019-01-13T23:52:43.050Z,22.33
2019-01-13T23:55:13.655Z,27.47
2019-01-13T23:57:44.143Z,23.77
